Time;durP1;ratioP1;P1;durP2;ratioP2;P2;SDS_P1;SDS_P2;PMS_P1;PMS_P2;Temp;Humidity;BMP_temperature;BMP_pressure;BME280_temperature;BME280_humidity;BME280_pressure;Samples;Min_cycle;Max_cycle;Signal;HPM_P1;HPM_P2
2024/03/22 00:03:46;;;;;;;5.68;4.13;;;;;;;;;;10260345;28;20054;-74
2024/03/22 00:08:50;;;;;;;7.40;4.72;;;;;;;;;;10268888;28;20046;-74
2024/03/22 00:13:52;;;;;;;8.05;4.85;;;;;;;;;;10261963;28;20079;-74
2024/03/22 00:18:54;;;;;;;8.82;4.65;;;;;;;;;;10260319;28;20049;-74
2024/03/22 00:23:58;;;;;;;8.85;5.75;;;;;;;;;;10264479;28;20050;-73
2024/03/22 00:29:00;;;;;;;8.13;5.50;;;;;;;;;;10270577;28;20049;-74
2024/03/22 00:34:03;;;;;;;7.45;5.18;;;;;;;;;;10272463;28;20069;-73
2024/03/22 00:39:06;;;;;;;7.57;5.18;;;;;;;;;;10248154;28;20043;-74
2024/03/22 00:44:09;;;;;;;6.07;4.22;;;;;;;;;;10246435;28;20050;-74
2024/03/22 00:49:11;;;;;;;7.40;5.00;;;;;;;;;;10264351;28;20043;-74
2024/03/22 00:54:15;;;;;;;5.75;4.30;;;;;;;;;;10259862;28;20050;-74
2024/03/22 00:59:18;;;;;;;5.90;4.32;;;;;;;;;;10267316;28;20039;-74
2024/03/22 01:04:20;;;;;;;6.72;4.22;;;;;;;;;;10255279;28;20408;-73
2024/03/22 01:09:23;;;;;;;6.07;4.10;;;;;;;;;;10262459;28;20043;-73
2024/03/22 01:14:26;;;;;;;7.00;4.60;;;;;;;;;;10260865;28;20050;-74
2024/03/22 01:19:28;;;;;;;8.27;4.60;;;;;;;;;;10264409;28;20035;-74
2024/03/22 01:24:32;;;;;;;7.63;5.15;;;;;;;;;;10278242;28;20046;-74
2024/03/22 01:29:34;;;;;;;7.60;5.32;;;;;;;;;;10300390;28;20043;-74
2024/03/22 01:34:36;;;;;;;6.55;4.60;;;;;;;;;;10266323;28;20097;-73
2024/03/22 01:39:40;;;;;;;6.45;4.90;;;;;;;;;;10272127;28;20583;-74
2024/03/22 01:44:42;;;;;;;7.63;5.13;;;;;;;;;;10270926;28;20047;-74
2024/03/22 01:49:45;;;;;;;7.43;5.07;;;;;;;;;;10251230;28;20054;-74
2024/03/22 01:54:49;;;;;;;6.82;4.47;;;;;;;;;;10266456;28;20045;-74
2024/03/22 01:59:54;;;;;;;5.85;4.82;;;;;;;;;;10284086;28;20102;-74
2024/03/22 02:04:58;;;;;;;8.05;4.85;;;;;;;;;;10269389;28;20512;-74
2024/03/22 02:10:02;;;;;;;5.80;4.32;;;;;;;;;;10270695;28;20042;-73
2024/03/22 02:15:05;;;;;;;6.72;4.85;;;;;;;;;;10277368;28;20057;-73
2024/03/22 02:20:08;;;;;;;5.97;4.30;;;;;;;;;;10259450;28;20058;-74
2024/03/22 02:25:12;;;;;;;6.47;4.25;;;;;;;;;;10264395;28;20054;-74
2024/03/22 02:30:15;;;;;;;7.10;4.60;;;;;;;;;;10285523;28;20049;-73
2024/03/22 02:35:17;;;;;;;6.28;4.10;;;;;;;;;;10269606;28;20038;-74
2024/03/22 02:40:21;;;;;;;8.35;4.93;;;;;;;;;;10271886;28;20047;-74
2024/03/22 02:45:23;;;;;;;6.60;4.18;;;;;;;;;;10264891;28;20104;-74
2024/03/22 02:50:25;;;;;;;6.85;4.40;;;;;;;;;;10271322;28;20176;-74
2024/03/22 02:55:29;;;;;;;7.45;4.05;;;;;;;;;;10272648;28;20063;-73
2024/03/22 03:00:31;;;;;;;5.60;3.88;;;;;;;;;;10281564;28;20045;-74
2024/03/22 03:05:34;;;;;;;5.78;4.20;;;;;;;;;;10269591;28;20051;-74
2024/03/22 03:10:38;;;;;;;6.30;4.25;;;;;;;;;;10251975;28;20058;-74
2024/03/22 03:15:40;;;;;;;7.50;4.80;;;;;;;;;;10273751;28;20051;-74
2024/03/22 03:20:43;;;;;;;6.78;4.53;;;;;;;;;;10280265;28;20045;-74
2024/03/22 03:25:47;;;;;;;6.75;4.13;;;;;;;;;;10274412;28;20539;-74
2024/03/22 03:30:49;;;;;;;6.20;3.97;;;;;;;;;;10267283;28;20042;-74
2024/03/22 03:35:52;;;;;;;5.80;4.13;;;;;;;;;;10269849;28;20088;-74
2024/03/22 03:40:55;;;;;;;6.22;4.38;;;;;;;;;;10262956;28;20045;-74
2024/03/22 03:45:58;;;;;;;6.40;4.43;;;;;;;;;;10264479;28;20031;-74
2024/03/22 03:51:03;;;;;;;8.35;4.90;;;;;;;;;;10286213;28;20043;-74
2024/03/22 03:56:06;;;;;;;6.63;4.40;;;;;;;;;;10262969;28;20051;-74
2024/03/22 04:01:09;;;;;;;5.88;4.18;;;;;;;;;;10290674;28;20039;-74
2024/03/22 04:06:12;;;;;;;7.68;3.70;;;;;;;;;;10265984;28;20030;-74
2024/03/22 04:11:15;;;;;;;5.53;3.95;;;;;;;;;;10263046;28;20057;-74
2024/03/22 04:16:18;;;;;;;6.63;3.83;;;;;;;;;;10265712;28;20408;-74
2024/03/22 04:21:20;;;;;;;5.82;3.83;;;;;;;;;;10261766;28;20455;-74
2024/03/22 04:26:24;;;;;;;7.03;4.28;;;;;;;;;;10264255;28;20484;-74
2024/03/22 04:31:26;;;;;;;7.15;4.20;;;;;;;;;;10279512;28;20046;-74
2024/03/22 04:36:29;;;;;;;6.05;3.83;;;;;;;;;;10272864;28;20039;-74
2024/03/22 04:41:32;;;;;;;6.85;4.30;;;;;;;;;;10260592;28;20043;-73
2024/03/22 04:46:35;;;;;;;4.57;3.55;;;;;;;;;;10263571;28;20047;-74
2024/03/22 04:51:37;;;;;;;4.85;3.17;;;;;;;;;;10266110;28;20062;-74
2024/03/22 04:56:41;;;;;;;5.22;3.45;;;;;;;;;;10266780;28;20039;-74
2024/03/22 05:01:44;;;;;;;6.25;3.65;;;;;;;;;;10277972;28;20043;-74
2024/03/22 05:06:46;;;;;;;5.03;3.28;;;;;;;;;;10276049;28;20113;-74
2024/03/22 05:11:50;;;;;;;7.38;3.45;;;;;;;;;;10285235;28;20047;-74
2024/03/22 05:16:53;;;;;;;5.85;3.47;;;;;;;;;;10270772;28;20038;-74
2024/03/22 05:21:55;;;;;;;6.15;3.80;;;;;;;;;;10305652;22;20042;-74
2024/03/22 05:26:59;;;;;;;5.75;3.42;;;;;;;;;;10301435;28;20103;-74
2024/03/22 05:32:03;;;;;;;6.15;3.78;;;;;;;;;;10257175;28;20058;-74
2024/03/22 05:37:06;;;;;;;4.50;3.42;;;;;;;;;;10254032;28;20090;-74
2024/03/22 05:42:10;;;;;;;4.00;3.08;;;;;;;;;;10254311;28;20046;-74
2024/03/22 05:47:12;;;;;;;5.57;3.65;;;;;;;;;;10253816;28;20127;-74
2024/03/22 05:52:15;;;;;;;6.28;3.83;;;;;;;;;;10271834;28;20053;-74
2024/03/22 05:57:19;;;;;;;4.60;3.10;;;;;;;;;;10251614;28;20046;-74
2024/03/22 06:02:21;;;;;;;4.93;3.20;;;;;;;;;;10254312;28;20180;-74
2024/03/22 06:07:23;;;;;;;4.32;3.00;;;;;;;;;;10264330;28;20114;-74
2024/03/22 06:12:27;;;;;;;4.07;2.80;;;;;;;;;;10250874;28;20047;-74
2024/03/22 06:17:29;;;;;;;4.15;3.25;;;;;;;;;;10237271;28;20050;-74
2024/03/22 06:22:32;;;;;;;5.05;3.35;;;;;;;;;;10255514;28;20047;-74
2024/03/22 06:27:35;;;;;;;5.88;3.63;;;;;;;;;;10252835;28;20042;-74
2024/03/22 06:32:37;;;;;;;6.32;3.88;;;;;;;;;;10253271;28;20049;-74
2024/03/22 06:37:41;;;;;;;5.93;3.75;;;;;;;;;;10249991;28;20042;-74
2024/03/22 06:42:44;;;;;;;5.20;3.13;;;;;;;;;;10250575;28;20396;-74
2024/03/22 06:47:47;;;;;;;6.18;3.80;;;;;;;;;;10255332;28;20046;-74
2024/03/22 06:52:50;;;;;;;9.13;4.90;;;;;;;;;;10253461;28;20475;-74
2024/03/22 06:57:53;;;;;;;7.25;4.25;;;;;;;;;;10250802;28;20058;-74
2024/03/22 07:02:57;;;;;;;6.35;3.92;;;;;;;;;;10251491;28;20126;-74
2024/03/22 07:07:59;;;;;;;5.45;3.00;;;;;;;;;;10251428;28;20045;-74
2024/03/22 07:13:03;;;;;;;6.07;3.00;;;;;;;;;;10252351;28;20046;-74
2024/03/22 07:18:06;;;;;;;3.90;2.22;;;;;;;;;;10254171;28;20260;-75
2024/03/22 07:23:08;;;;;;;3.72;2.03;;;;;;;;;;10233402;28;20523;-74
2024/03/22 07:28:12;;;;;;;2.92;2.00;;;;;;;;;;10252050;28;20043;-74
2024/03/22 07:33:16;;;;;;;3.67;2.28;;;;;;;;;;10253313;28;20527;-74
2024/03/22 07:38:18;;;;;;;3.53;2.17;;;;;;;;;;10249792;28;20035;-74
2024/03/22 07:43:22;;;;;;;2.30;2.10;;;;;;;;;;10250845;28;20047;-74
2024/03/22 07:48:24;;;;;;;3.80;2.33;;;;;;;;;;10252088;28;20038;-74
2024/03/22 07:53:26;;;;;;;3.08;2.10;;;;;;;;;;10251205;28;20362;-74
2024/03/22 07:58:30;;;;;;;4.05;2.17;;;;;;;;;;10252754;28;20488;-74
2024/03/22 08:03:33;;;;;;;1.88;1.40;;;;;;;;;;10252408;28;20051;-74
2024/03/22 08:08:35;;;;;;;3.50;1.73;;;;;;;;;;10248432;28;20076;-74
2024/03/22 08:13:39;;;;;;;2.97;1.60;;;;;;;;;;10251971;28;20047;-74
2024/03/22 08:18:41;;;;;;;1.88;1.42;;;;;;;;;;10250717;28;20043;-74
2024/03/22 08:23:43;;;;;;;3.15;1.80;;;;;;;;;;10245853;28;20058;-74
2024/03/22 08:28:48;;;;;;;2.22;1.25;;;;;;;;;;10248223;28;20043;-74
2024/03/22 08:33:50;;;;;;;1.50;1.00;;;;;;;;;;10248452;28;20046;-74
2024/03/22 08:38:52;;;;;;;1.75;1.02;;;;;;;;;;10248062;28;20047;-74
2024/03/22 08:43:57;;;;;;;3.85;1.52;;;;;;;;;;10234628;28;20050;-74
2024/03/22 08:48:59;;;;;;;1.67;1.13;;;;;;;;;;10252309;28;20058;-74
2024/03/22 08:54:02;;;;;;;1.33;1.17;;;;;;;;;;10255298;28;20069;-74
2024/03/22 08:59:05;;;;;;;2.85;1.63;;;;;;;;;;10232295;28;20548;-74
2024/03/22 09:04:08;;;;;;;2.40;1.65;;;;;;;;;;10247276;28;20084;-74
2024/03/22 09:09:11;;;;;;;3.65;2.30;;;;;;;;;;10235427;28;20043;-74
2024/03/22 09:14:15;;;;;;;4.07;2.97;;;;;;;;;;10252608;28;20046;-74
2024/03/22 09:19:19;;;;;;;4.30;2.53;;;;;;;;;;10248453;28;20046;-74
2024/03/22 09:24:21;;;;;;;6.85;2.60;;;;;;;;;;10246268;28;20050;-74
2024/03/22 09:29:25;;;;;;;4.65;3.70;;;;;;;;;;10241797;28;20047;-74
2024/03/22 09:34:28;;;;;;;4.32;3.55;;;;;;;;;;10275068;28;20500;-74
2024/03/22 09:39:31;;;;;;;5.70;4.43;;;;;;;;;;10262060;28;20265;-74
2024/03/22 09:44:36;;;;;;;11.55;6.40;;;;;;;;;;10256388;28;20089;-74
2024/03/22 09:49:38;;;;;;;7.47;4.63;;;;;;;;;;10255336;28;20421;-74
2024/03/22 09:54:42;;;;;;;6.70;4.53;;;;;;;;;;10269135;28;20403;-74
2024/03/22 09:59:46;;;;;;;6.53;4.45;;;;;;;;;;10277254;28;20043;-74
2024/03/22 10:04:48;;;;;;;5.00;2.80;;;;;;;;;;10257972;28;20096;-74
2024/03/22 10:09:53;;;;;;;4.22;3.13;;;;;;;;;;10251755;28;20424;-74
2024/03/22 10:14:56;;;;;;;8.20;5.03;;;;;;;;;;10283567;28;20059;-74
2024/03/22 10:19:59;;;;;;;14.77;6.35;;;;;;;;;;10273939;28;20101;-74
2024/03/22 10:25:01;;;;;;;5.90;4.28;;;;;;;;;;10275389;28;20585;-74
2024/03/22 10:30:09;;;;;;;12.95;8.98;;;;;;;;;;10271936;28;20388;-74
2024/03/22 10:35:13;;;;;;;9.25;5.63;;;;;;;;;;10265891;28;20050;-74
2024/03/22 10:40:17;;;;;;;9.43;6.10;;;;;;;;;;10266253;28;20039;-74
2024/03/22 10:45:25;;;;;;;12.95;8.30;;;;;;;;;;10273328;28;20035;-74
2024/03/22 10:50:29;;;;;;;11.60;7.72;;;;;;;;;;10260199;28;20039;-74
2024/03/22 10:55:35;;;;;;;13.52;8.43;;;;;;;;;;10253354;28;20050;-74
2024/03/22 11:00:43;;;;;;;;;;;;;;;;;;10282570;28;20054;-74
2024/03/22 11:05:50;;;;;;;8.63;5.78;;;;;;;;;;10321057;28;19967;-74
2024/03/22 11:10:53;;;;;;;12.63;9.18;;;;;;;;;;10271234;28;20047;-73
2024/03/22 11:16:00;;;;;;;15.80;9.57;;;;;;;;;;10256820;28;20054;-74
2024/03/22 11:21:03;;;;;;;13.77;9.00;;;;;;;;;;10291686;22;20046;-73
2024/03/22 11:26:07;;;;;;;12.32;8.65;;;;;;;;;;10293802;28;20054;-73
2024/03/22 11:31:11;;;;;;;11.23;6.97;;;;;;;;;;10295515;28;20046;-73
2024/03/22 11:36:15;;;;;;;13.88;8.48;;;;;;;;;;10289915;28;20050;-73
2024/03/22 11:41:19;;;;;;;11.27;8.10;;;;;;;;;;10285464;28;20050;-74
2024/03/22 11:46:23;;;;;;;11.18;7.40;;;;;;;;;;10285170;28;20062;-73
2024/03/22 11:51:25;;;;;;;14.52;7.63;;;;;;;;;;10287679;28;20511;-74
2024/03/22 11:56:27;;;;;;;12.35;7.28;;;;;;;;;;10282163;28;20061;-74
2024/03/22 12:01:31;;;;;;;13.73;8.10;;;;;;;;;;10373369;28;20043;-73
2024/03/22 12:06:35;;;;;;;12.13;7.82;;;;;;;;;;10289023;28;20435;-73
2024/03/22 12:11:37;;;;;;;11.73;7.65;;;;;;;;;;10293242;28;20100;-73
2024/03/22 12:16:41;;;;;;;11.90;6.50;;;;;;;;;;10283085;28;20053;-74
2024/03/22 12:21:43;;;;;;;12.20;7.47;;;;;;;;;;10284994;28;20054;-74
2024/03/22 12:26:46;;;;;;;9.45;6.57;;;;;;;;;;10288183;28;20043;-74
2024/03/22 12:31:50;;;;;;;10.48;7.20;;;;;;;;;;10289445;28;20057;-73
2024/03/22 12:36:52;;;;;;;8.70;5.68;;;;;;;;;;10306744;28;20062;-74
2024/03/22 12:41:55;;;;;;;7.57;4.45;;;;;;;;;;10270406;28;20042;-74
2024/03/22 12:46:58;;;;;;;11.43;6.32;;;;;;;;;;10283024;28;20038;-74
2024/03/22 12:52:01;;;;;;;7.35;5.00;;;;;;;;;;10370874;28;20443;-74
2024/03/22 12:57:03;;;;;;;7.45;5.55;;;;;;;;;;10288045;28;20034;-73
2024/03/22 13:02:09;;;;;;;7.88;4.82;;;;;;;;;;10287673;28;20633;-73
2024/03/22 13:07:11;;;;;;;10.67;6.80;;;;;;;;;;10282093;28;20399;-74
2024/03/22 13:12:14;;;;;;;7.43;5.20;;;;;;;;;;10286303;28;20054;-73
2024/03/22 13:17:17;;;;;;;6.13;4.40;;;;;;;;;;10283666;28;20042;-73
2024/03/22 13:22:20;;;;;;;10.13;6.30;;;;;;;;;;10287683;28;20046;-73
2024/03/22 13:27:26;;;;;;;8.95;7.05;;;;;;;;;;10295056;28;20079;-73
2024/03/22 13:32:29;;;;;;;10.85;6.72;;;;;;;;;;10287388;28;20438;-73
2024/03/22 13:37:32;;;;;;;10.88;7.00;;;;;;;;;;10279843;28;20052;-73
2024/03/22 13:42:34;;;;;;;12.63;8.07;;;;;;;;;;10282062;28;20047;-73
2024/03/22 13:47:40;;;;;;;16.80;9.25;;;;;;;;;;10295758;28;20065;-73
2024/03/22 13:52:42;;;;;;;14.05;8.27;;;;;;;;;;10283414;28;20043;-73
2024/03/22 13:57:44;;;;;;;10.60;6.35;;;;;;;;;;10289792;28;20051;-74
2024/03/22 14:02:52;;;;;;;17.45;10.45;;;;;;;;;;10290414;28;20077;-73
2024/03/22 14:07:54;;;;;;;12.98;8.65;;;;;;;;;;10289423;28;20043;-73
2024/03/22 14:12:56;;;;;;;14.13;8.75;;;;;;;;;;10289604;28;20039;-73
2024/03/22 14:18:00;;;;;;;15.18;9.25;;;;;;;;;;10276359;28;20491;-74
2024/03/22 14:23:03;;;;;;;11.23;8.10;;;;;;;;;;10289362;28;20244;-73
2024/03/22 14:28:06;;;;;;;13.07;7.30;;;;;;;;;;10368085;28;20043;-74
2024/03/22 14:33:10;;;;;;;12.15;8.38;;;;;;;;;;10290127;28;20043;-73
2024/03/22 14:38:12;;;;;;;13.55;8.13;;;;;;;;;;10284709;28;20053;-73
2024/03/22 14:43:14;;;;;;;15.32;9.38;;;;;;;;;;10285471;28;20535;-73
2024/03/22 14:48:18;;;;;;;10.40;7.25;;;;;;;;;;10286056;28;20046;-73
2024/03/22 14:53:22;;;;;;;6.50;4.57;;;;;;;;;;10290663;28;20626;-74
2024/03/22 14:58:24;;;;;;;12.25;7.07;;;;;;;;;;10288685;28;20053;-74
2024/03/22 15:03:28;;;;;;;7.00;4.88;;;;;;;;;;10307976;28;20043;-74
2024/03/22 15:08:32;;;;;;;7.18;5.07;;;;;;;;;;10295876;28;20050;-73
2024/03/22 15:13:34;;;;;;;8.07;4.90;;;;;;;;;;10322334;28;20057;-73
2024/03/22 15:18:39;;;;;;;5.90;4.13;;;;;;;;;;10282626;28;20767;-74
2024/03/22 15:23:41;;;;;;;10.38;5.18;;;;;;;;;;10286269;28;20404;-74
2024/03/22 15:28:44;;;;;;;7.72;4.63;;;;;;;;;;10284222;28;20108;-74
2024/03/22 15:33:48;;;;;;;9.05;5.38;;;;;;;;;;10289040;28;20058;-73
2024/03/22 15:38:50;;;;;;;9.20;6.05;;;;;;;;;;10287473;28;20061;-73
2024/03/22 15:43:53;;;;;;;10.50;6.95;;;;;;;;;;10278838;28;20503;-73
2024/03/22 15:48:56;;;;;;;10.00;6.95;;;;;;;;;;10282792;28;21575;-73
2024/03/22 15:54:00;;;;;;;10.15;7.82;;;;;;;;;;10289256;28;20530;-73
2024/03/22 15:59:02;;;;;;;13.00;8.85;;;;;;;;;;10281569;28;20046;-73
2024/03/22 16:04:06;;;;;;;13.30;9.18;;;;;;;;;;10270169;28;20035;-74
2024/03/22 16:09:10;;;;;;;9.43;6.90;;;;;;;;;;10292562;28;20087;-73
2024/03/22 16:14:12;;;;;;;9.00;6.47;;;;;;;;;;10285247;28;20042;-73
2024/03/22 16:19:16;;;;;;;11.73;6.03;;;;;;;;;;10291066;28;20043;-73
2024/03/22 16:24:19;;;;;;;10.32;6.22;;;;;;;;;;10293350;28;20080;-73
2024/03/22 16:29:24;;;;;;;10.85;6.45;;;;;;;;;;10287632;28;20459;-73
2024/03/22 16:34:27;;;;;;;11.82;7.22;;;;;;;;;;10287051;28;20400;-73
2024/03/22 16:39:30;;;;;;;11.52;6.30;;;;;;;;;;10281488;28;20049;-73
2024/03/22 16:44:33;;;;;;;10.70;6.53;;;;;;;;;;10280419;28;20046;-72
2024/03/22 16:49:37;;;;;;;9.13;6.43;;;;;;;;;;10290943;28;20415;-73
2024/03/22 16:54:39;;;;;;;11.15;7.40;;;;;;;;;;10363120;28;20057;-73
2024/03/22 16:59:42;;;;;;;9.27;6.32;;;;;;;;;;10268947;28;20043;-73
2024/03/22 17:04:45;;;;;;;11.15;6.80;;;;;;;;;;10311499;28;20662;-73
2024/03/22 17:09:49;;;;;;;10.35;6.70;;;;;;;;;;10289645;28;20133;-73
2024/03/22 17:14:51;;;;;;;10.02;5.25;;;;;;;;;;10294718;28;20508;-73
2024/03/22 17:19:55;;;;;;;6.68;4.13;;;;;;;;;;10287621;23;20047;-73
2024/03/22 17:24:58;;;;;;;10.13;5.38;;;;;;;;;;10263460;28;20134;-73
2024/03/22 17:30:00;;;;;;;7.65;4.75;;;;;;;;;;10256063;28;20047;-73
2024/03/22 17:35:04;;;;;;;4.05;2.88;;;;;;;;;;10266344;28;20047;-73
2024/03/22 17:40:08;;;;;;;3.95;2.83;;;;;;;;;;10260908;28;20031;-73
2024/03/22 17:45:11;;;;;;;3.40;2.47;;;;;;;;;;10262379;28;20051;-74
2024/03/22 17:50:15;;;;;;;4.90;2.83;;;;;;;;;;10260257;28;20039;-73
2024/03/22 17:55:17;;;;;;;2.80;2.45;;;;;;;;;;10267838;28;20053;-73
2024/03/22 18:00:20;;;;;;;3.78;2.85;;;;;;;;;;10259741;28;20047;-73
2024/03/22 18:05:23;;;;;;;4.45;2.97;;;;;;;;;;10280372;28;20051;-73
2024/03/22 18:10:27;;;;;;;4.03;2.90;;;;;;;;;;10256088;28;20062;-73
2024/03/22 18:15:29;;;;;;;4.05;2.55;;;;;;;;;;10271324;28;20096;-73
2024/03/22 18:20:33;;;;;;;5.10;2.70;;;;;;;;;;10259520;28;20048;-73
2024/03/22 18:25:35;;;;;;;4.25;3.08;;;;;;;;;;10270545;28;20092;-73
2024/03/22 18:30:38;;;;;;;4.93;2.60;;;;;;;;;;10283690;28;20042;-74
2024/03/22 18:35:43;;;;;;;4.75;2.85;;;;;;;;;;10283870;28;20042;-73
2024/03/22 18:40:45;;;;;;;3.80;2.53;;;;;;;;;;10266486;28;20423;-73
2024/03/22 18:45:48;;;;;;;5.28;2.80;;;;;;;;;;10265082;28;20059;-73
2024/03/22 18:50:52;;;;;;;2.85;2.30;;;;;;;;;;10264917;28;20050;-73
2024/03/22 18:55:54;;;;;;;5.63;2.72;;;;;;;;;;10263836;28;20069;-73
2024/03/22 19:00:57;;;;;;;4.43;2.90;;;;;;;;;;10263356;28;20043;-73
2024/03/22 19:06:00;;;;;;;4.72;3.22;;;;;;;;;;10260367;28;20392;-73
2024/03/22 19:11:03;;;;;;;6.10;3.38;;;;;;;;;;10262693;28;20054;-73
2024/03/22 19:16:06;;;;;;;5.90;3.75;;;;;;;;;;10267687;28;20050;-73
2024/03/22 19:21:09;;;;;;;7.03;4.03;;;;;;;;;;10285329;28;20042;-73
2024/03/22 19:26:12;;;;;;;5.97;4.05;;;;;;;;;;10275368;28;20415;-73
2024/03/22 19:31:14;;;;;;;4.95;3.25;;;;;;;;;;10248169;28;20053;-73
2024/03/22 19:36:20;;;;;;;6.28;3.78;;;;;;;;;;10258057;28;20047;-73
2024/03/22 19:41:22;;;;;;;4.50;3.60;;;;;;;;;;10260449;28;20051;-73
2024/03/22 19:46:24;;;;;;;5.18;3.30;;;;;;;;;;10266309;28;20043;-73
2024/03/22 19:51:28;;;;;;;7.05;3.70;;;;;;;;;;10258556;28;20039;-73
2024/03/22 19:56:30;;;;;;;4.65;3.00;;;;;;;;;;10263994;28;20046;-73
2024/03/22 20:01:33;;;;;;;5.70;3.00;;;;;;;;;;10267767;28;20049;-73
2024/03/22 20:06:36;;;;;;;3.67;3.08;;;;;;;;;;10286775;28;20047;-73
2024/03/22 20:11:39;;;;;;;3.47;2.65;;;;;;;;;;10264074;28;20043;-73
2024/03/22 20:16:41;;;;;;;3.58;2.58;;;;;;;;;;10260927;28;20062;-73
2024/03/22 20:21:45;;;;;;;3.00;2.42;;;;;;;;;;10263598;28;20046;-73
2024/03/22 20:26:47;;;;;;;2.83;2.47;;;;;;;;;;10262316;28;20038;-73
2024/03/22 20:31:50;;;;;;;3.22;2.45;;;;;;;;;;10260790;28;20448;-73
2024/03/22 20:36:54;;;;;;;5.40;3.30;;;;;;;;;;10257449;28;20047;-73
2024/03/22 20:41:56;;;;;;;3.83;3.13;;;;;;;;;;10254088;28;20043;-73
2024/03/22 20:46:59;;;;;;;3.83;3.00;;;;;;;;;;10261010;28;20047;-73
2024/03/22 20:52:04;;;;;;;4.05;3.15;;;;;;;;;;10261802;28;20039;-73
2024/03/22 20:57:09;;;;;;;6.00;3.95;;;;;;;;;;10254240;28;20555;-73
2024/03/22 21:02:14;;;;;;;6.53;4.47;;;;;;;;;;10277735;28;20070;-73
2024/03/22 21:07:20;;;;;;;7.03;4.22;;;;;;;;;;10261353;28;20438;-73
2024/03/22 21:12:25;;;;;;;6.00;4.45;;;;;;;;;;10262315;28;20038;-73
2024/03/22 21:17:30;;;;;;;9.32;4.63;;;;;;;;;;10261255;28;20038;-73
2024/03/22 21:22:35;;;;;;;6.65;4.82;;;;;;;;;;10255133;28;20365;-73
2024/03/22 21:27:40;;;;;;;7.65;5.22;;;;;;;;;;10257861;28;20046;-73
2024/03/22 21:32:46;;;;;;;8.38;4.78;;;;;;;;;;10262712;28;20115;-73
2024/03/22 21:37:59;;;;;;;7.88;5.57;;;;;;;;;;10262993;28;20047;-73
2024/03/22 21:43:06;;;;;;;10.05;5.85;;;;;;;;;;10256443;28;20112;-73
2024/03/22 21:48:11;;;;;;;7.85;5.22;;;;;;;;;;10262632;28;20089;-73
2024/03/22 21:53:16;;;;;;;7.13;4.60;;;;;;;;;;10261459;28;20053;-73
2024/03/22 21:58:21;;;;;;;5.28;4.13;;;;;;;;;;10277788;28;20046;-73
2024/03/22 22:03:26;;;;;;;5.93;4.68;;;;;;;;;;10266832;28;20039;-73
2024/03/22 22:08:31;;;;;;;7.10;4.60;;;;;;;;;;10272860;28;20053;-73
2024/03/22 22:13:36;;;;;;;8.15;5.03;;;;;;;;;;10258099;28;20038;-73
2024/03/22 22:18:41;;;;;;;7.43;5.18;;;;;;;;;;10262729;28;20043;-73
2024/03/22 22:23:49;;;;;;;6.72;4.95;;;;;;;;;;10261057;28;20047;-73
2024/03/22 22:28:54;;;;;;;8.25;4.65;;;;;;;;;;10255507;28;20046;-73
2024/03/22 22:33:59;;;;;;;6.15;4.28;;;;;;;;;;10263050;28;20035;-73
2024/03/22 22:39:04;;;;;;;5.82;4.25;;;;;;;;;;10260812;28;20042;-73
2024/03/22 22:44:09;;;;;;;9.48;5.13;;;;;;;;;;10265255;28;20062;-73
2024/03/22 22:49:14;;;;;;;18.33;8.95;;;;;;;;;;10264582;28;20762;-73
2024/03/22 22:54:19;;;;;;;20.67;7.75;;;;;;;;;;10258116;28;20043;-73
2024/03/22 22:59:24;;;;;;;19.05;10.30;;;;;;;;;;10266350;28;20087;-73
2024/03/22 23:04:29;;;;;;;17.77;9.15;;;;;;;;;;10259867;28;20046;-73
2024/03/22 23:09:34;;;;;;;10.80;6.72;;;;;;;;;;10261715;28;20046;-73
2024/03/22 23:14:39;;;;;;;12.13;6.18;;;;;;;;;;10254153;28;20058;-73
2024/03/22 23:19:44;;;;;;;10.75;6.35;;;;;;;;;;10368054;22;20190;-73
2024/03/22 23:24:49;;;;;;;10.88;6.38;;;;;;;;;;10289157;28;20037;-72
2024/03/22 23:29:54;;;;;;;11.02;6.72;;;;;;;;;;10282653;28;20657;-73
2024/03/22 23:34:59;;;;;;;11.73;6.65;;;;;;;;;;10303146;28;20038;-73
2024/03/22 23:40:04;;;;;;;11.68;7.63;;;;;;;;;;10291620;28;20050;-73
2024/03/22 23:45:09;;;;;;;12.20;7.65;;;;;;;;;;10261684;28;20046;-72
2024/03/22 23:50:14;;;;;;;13.38;7.18;;;;;;;;;;10259425;28;20468;-73
2024/03/22 23:55:19;;;;;;;10.55;6.68;;;;;;;;;;10268362;28;20031;-73
